Cap San Raphael — D5FJ2 — position and weather

sailwx.info

Track history (hours):
 
Tides and Currents Weather Stations Pressure Air Temp Water Temp Dewpoint Dewpoint Depression Visibility Wind Speed Wind Dir Waves Ship Positions

Cap San Raphael

Last reported at 2017-Dec-03 00:40 UTC. Time now 2017-Dec-11 17:29 UTC.
Position S 24°40' W 046°46'.
Warning: this ship's position is 8 days out of date.

Length 333 m; draft 10.9 m.

Type: Ship (hazmat cat A). MMSI: 636092548.

Date/timePositionNaut miles runAvg speedWind from/ knotsBaromVisibWave heightAir tempDewpointWater temp
2017-Dec-03 00:40S 24°40' W 046°46'1 7.9
2017-Dec-03 00:30S 24°39' W 046°44'4 8.0
2017-Dec-03 00:00S 24°37' W 046°41'4 8.0
2017-Dec-02 23:30S 24°34' W 046°37'4 8.0
2017-Dec-02 23:00S 24°32' W 046°34'4 7.9
2017-Dec-02 22:30S 24°29' W 046°32'4 8.0
2017-Dec-02 22:00S 24°25' W 046°30'4 8.1
2017-Dec-02 21:30S 24°21' W 046°29'4 7.9
2017-Dec-02 21:00S 24°17' W 046°27'5 9.1
2017-Dec-02 20:30S 24°13' W 046°26'5 9.3
2017-Dec-02 20:00S 24°09' W 046°24'5 9.4
2017-Dec-02 19:30S 24°04' W 046°22'5 9.4
2017-Dec-02 19:00S 23°60' W 046°20'3 5.3
2017-Dec-02 18:28S 23°58' W 046°18'0 0.3
2017-Dec-02 18:01S 23°58' W 046°18'0 0.0
2017-Dec-02 17:30S 23°58' W 046°18'0 0.0
2017-Dec-02 16:51S 23°58' W 046°18'0 0.0
2017-Dec-02 16:27S 23°58' W 046°18'0 0.0
2017-Dec-02 16:00S 23°58' W 046°18'0 0.0
2017-Dec-02 15:21S 23°58' W 046°18'0 0.0
2017-Dec-02 14:54S 23°58' W 046°18'0 0.0
2017-Dec-02 14:21S 23°58' W 046°18'0 0.0
2017-Dec-02 13:51S 23°58' W 046°18'0 0.0
2017-Dec-02 13:30S 23°58' W 046°18'0 0.0
2017-Dec-02 12:54S 23°58' W 046°18'0 0.0
2017-Dec-02 12:30S 23°58' W 046°18'0 0.0
2017-Dec-02 11:57S 23°58' W 046°18'0 0.0
2017-Dec-02 11:27S 23°58' W 046°18'0 0.0
2017-Dec-02 11:00S 23°58' W 046°18'0 0.0
2017-Dec-02 10:30S 23°58' W 046°18'0 0.0
2017-Dec-02 10:00S 23°58' W 046°18'0 0.0
2017-Dec-02 09:27S 23°58' W 046°18'0 0.0
2017-Dec-02 09:00S 23°58' W 046°18'0 0.0
2017-Dec-02 08:30S 23°58' W 046°18'0 0.0
2017-Dec-02 07:57S 23°58' W 046°18'0 0.0
2017-Dec-02 07:30S 23°58' W 046°18'0 0.0
2017-Dec-02 07:00S 23°58' W 046°18'0 0.0
2017-Dec-02 06:30S 23°58' W 046°18'0 0.0
2017-Dec-02 06:00S 23°58' W 046°18'0 0.0
2017-Dec-02 05:30S 23°58' W 046°18'0 0.0
2017-Dec-02 04:54S 23°58' W 046°18'0 0.0
2017-Dec-02 04:30S 23°58' W 046°18'0 0.0
2017-Dec-02 03:54S 23°58' W 046°18'0 0.0
2017-Dec-02 03:30S 23°58' W 046°18'0 0.0
2017-Dec-02 03:00S 23°58' W 046°18'0 0.0
2017-Dec-02 02:30S 23°58' W 046°18'0 0.0
2017-Dec-02 02:00S 23°58' W 046°18'0 0.0
2017-Dec-02 01:30S 23°58' W 046°18'0 0.0
2017-Dec-02 01:00S 23°58' W 046°18'0 0.0
2017-Dec-02 00:30S 23°58' W 046°18'0 0.0
2017-Dec-02 00:00S 23°58' W 046°18'0 0.0
2017-Dec-01 23:30S 23°58' W 046°18'0 0.0
2017-Dec-01 23:00S 23°58' W 046°18'0 0.0
2017-Dec-01 22:30S 23°58' W 046°18'0 0.0
2017-Dec-01 22:00S 23°58' W 046°18'0 0.0
2017-Dec-01 21:30S 23°58' W 046°18'0 0.0
2017-Dec-01 20:54S 23°58' W 046°18'0 0.0
2017-Dec-01 20:30S 23°58' W 046°18'0 0.0
2017-Dec-01 19:54S 23°58' W 046°18'0 0.0
2017-Dec-01 19:30S 23°58' W 046°18'0 0.0
2017-Dec-01 18:51S 23°58' W 046°18'0 0.0
2017-Dec-01 18:30S 23°58' W 046°18'0 0.0
2017-Dec-01 18:00S 23°58' W 046°18'0 0.0
2017-Dec-01 17:30S 23°58' W 046°18'0 0.0
2017-Dec-01 16:24S 23°58' W 046°18'0 0.1
2017-Dec-01 16:00S 23°58' W 046°18'2 3.1
2017-Dec-01 15:30S 23°59' W 046°18'4 7.4
2017-Dec-01 15:00S 24°02' W 046°21'4 8.6
2017-Dec-01 14:30S 24°06' W 046°22'4 8.9
2017-Dec-01 14:00S 24°10' W 046°22'5 9.1
2017-Dec-01 13:30S 24°14' W 046°20'5 9.5
2017-Dec-01 13:00S 24°16' W 046°15'5 9.9
2017-Dec-01 12:30S 24°16' W 046°09'5 9.9
2017-Dec-01 12:00S 24°16' W 046°04'5 9.6
2017-Dec-01 11:29S 24°16' W 045°59'  
2017-Nov-29 00:00S 12°12' W 034°12'43718.2 080 / 141014.810.8 25.521.4
2017-Nov-28 00:00S 05°36' W 031°06'44518.6 130 / 191014.610.8 26.122.4
2017-Nov-27 00:00N 01°06' W 027°54'   130 / 201013.8 5.4 26.519.4
2017-Nov-23 02:01N 26°54' W 014°43'318.4
2017-Nov-23 01:51N 26°56' W 014°41'718.6
2017-Nov-23 01:30N 27°02' W 014°37'918.8
2017-Nov-23 01:00N 27°09' W 014°30'  
Track history (hours):
 
Tides and Currents Weather Stations Pressure Air Temp Water Temp Dewpoint Dewpoint Depression Visibility Wind Speed Wind Dir Waves Ship Positions

Cap San Raphael

Last reported at 2017-Dec-03 00:40 UTC. Time now 2017-Dec-11 17:29 UTC.
Position S 24°40' W 046°46'.
Warning: this ship's position is 8 days out of date.

Length 333 m; draft 10.9 m.

Type: Ship (hazmat cat A). MMSI: 636092548.

Date/timePositionNaut miles runAvg speedWind from/ knotsBaromVisibWave heightAir tempDewpointWater temp
2017-Dec-03 00:40S 24°40' W 046°46'1 7.9
2017-Dec-03 00:30S 24°39' W 046°44'4 8.0
2017-Dec-03 00:00S 24°37' W 046°41'4 8.0
2017-Dec-02 23:30S 24°34' W 046°37'4 8.0
2017-Dec-02 23:00S 24°32' W 046°34'4 7.9
2017-Dec-02 22:30S 24°29' W 046°32'4 8.0
2017-Dec-02 22:00S 24°25' W 046°30'4 8.1
2017-Dec-02 21:30S 24°21' W 046°29'4 7.9
2017-Dec-02 21:00S 24°17' W 046°27'5 9.1
2017-Dec-02 20:30S 24°13' W 046°26'5 9.3
2017-Dec-02 20:00S 24°09' W 046°24'5 9.4
2017-Dec-02 19:30S 24°04' W 046°22'5 9.4
2017-Dec-02 19:00S 23°60' W 046°20'3 5.3
2017-Dec-02 18:28S 23°58' W 046°18'0 0.3
2017-Dec-02 18:01S 23°58' W 046°18'0 0.0
2017-Dec-02 17:30S 23°58' W 046°18'0 0.0
2017-Dec-02 16:51S 23°58' W 046°18'0 0.0
2017-Dec-02 16:27S 23°58' W 046°18'0 0.0
2017-Dec-02 16:00S 23°58' W 046°18'0 0.0
2017-Dec-02 15:21S 23°58' W 046°18'0 0.0
2017-Dec-02 14:54S 23°58' W 046°18'0 0.0
2017-Dec-02 14:21S 23°58' W 046°18'0 0.0
2017-Dec-02 13:51S 23°58' W 046°18'0 0.0
2017-Dec-02 13:30S 23°58' W 046°18'0 0.0
2017-Dec-02 12:54S 23°58' W 046°18'0 0.0
2017-Dec-02 12:30S 23°58' W 046°18'0 0.0
2017-Dec-02 11:57S 23°58' W 046°18'0 0.0
2017-Dec-02 11:27S 23°58' W 046°18'0 0.0
2017-Dec-02 11:00S 23°58' W 046°18'0 0.0
2017-Dec-02 10:30S 23°58' W 046°18'0 0.0
2017-Dec-02 10:00S 23°58' W 046°18'0 0.0
2017-Dec-02 09:27S 23°58' W 046°18'0 0.0
2017-Dec-02 09:00S 23°58' W 046°18'0 0.0
2017-Dec-02 08:30S 23°58' W 046°18'0 0.0
2017-Dec-02 07:57S 23°58' W 046°18'0 0.0
2017-Dec-02 07:30S 23°58' W 046°18'0 0.0
2017-Dec-02 07:00S 23°58' W 046°18'0 0.0
2017-Dec-02 06:30S 23°58' W 046°18'0 0.0
2017-Dec-02 06:00S 23°58' W 046°18'0 0.0
2017-Dec-02 05:30S 23°58' W 046°18'0 0.0
2017-Dec-02 04:54S 23°58' W 046°18'0 0.0
2017-Dec-02 04:30S 23°58' W 046°18'0 0.0
2017-Dec-02 03:54S 23°58' W 046°18'0 0.0
2017-Dec-02 03:30S 23°58' W 046°18'0 0.0
2017-Dec-02 03:00S 23°58' W 046°18'0 0.0
2017-Dec-02 02:30S 23°58' W 046°18'0 0.0
2017-Dec-02 02:00S 23°58' W 046°18'0 0.0
2017-Dec-02 01:30S 23°58' W 046°18'0 0.0
2017-Dec-02 01:00S 23°58' W 046°18'0 0.0
2017-Dec-02 00:30S 23°58' W 046°18'0 0.0
2017-Dec-02 00:00S 23°58' W 046°18'0 0.0
2017-Dec-01 23:30S 23°58' W 046°18'0 0.0
2017-Dec-01 23:00S 23°58' W 046°18'0 0.0
2017-Dec-01 22:30S 23°58' W 046°18'0 0.0
2017-Dec-01 22:00S 23°58' W 046°18'0 0.0
2017-Dec-01 21:30S 23°58' W 046°18'0 0.0
2017-Dec-01 20:54S 23°58' W 046°18'0 0.0
2017-Dec-01 20:30S 23°58' W 046°18'0 0.0
2017-Dec-01 19:54S 23°58' W 046°18'0 0.0
2017-Dec-01 19:30S 23°58' W 046°18'0 0.0
2017-Dec-01 18:51S 23°58' W 046°18'0 0.0
2017-Dec-01 18:30S 23°58' W 046°18'0 0.0
2017-Dec-01 18:00S 23°58' W 046°18'0 0.0
2017-Dec-01 17:30S 23°58' W 046°18'0 0.0
2017-Dec-01 16:24S 23°58' W 046°18'0 0.1
2017-Dec-01 16:00S 23°58' W 046°18'2 3.1
2017-Dec-01 15:30S 23°59' W 046°18'4 7.4
2017-Dec-01 15:00S 24°02' W 046°21'4 8.6
2017-Dec-01 14:30S 24°06' W 046°22'4 8.9
2017-Dec-01 14:00S 24°10' W 046°22'5 9.1
2017-Dec-01 13:30S 24°14' W 046°20'5 9.5
2017-Dec-01 13:00S 24°16' W 046°15'5 9.9
2017-Dec-01 12:30S 24°16' W 046°09'5 9.9
2017-Dec-01 12:00S 24°16' W 046°04'5 9.6
2017-Dec-01 11:29S 24°16' W 045°59'  
2017-Nov-29 00:00S 12°12' W 034°12'43718.2 080 / 141014.810.8 25.521.4
2017-Nov-28 00:00S 05°36' W 031°06'44518.6 130 / 191014.610.8 26.122.4
2017-Nov-27 00:00N 01°06' W 027°54'   130 / 201013.8 5.4 26.519.4
2017-Nov-23 02:01N 26°54' W 014°43'318.4
2017-Nov-23 01:51N 26°56' W 014°41'718.6
2017-Nov-23 01:30N 27°02' W 014°37'918.8
2017-Nov-23 01:00N 27°09' W 014°30'  

Dump ship's entire track history